sensor_id;sensor_type;location;lat;lon;timestamp;P1;durP1;ratioP1;P2;durP2;ratioP2
38935;SDS011;66589;47.458;9.644;2023-05-19T03:18:32;4.00;;;0.40;;
38935;SDS011;66589;47.458;9.644;2023-05-19T03:20:58;1.92;;;0.63;;
38935;SDS011;66589;47.458;9.644;2023-05-19T03:23:23;2.20;;;0.57;;
38935;SDS011;66589;47.458;9.644;2023-05-19T03:25:50;3.45;;;0.60;;
38935;SDS011;66589;47.458;9.644;2023-05-19T03:28:18;4.90;;;0.50;;
38935;SDS011;66589;47.458;9.644;2023-05-19T03:30:44;3.45;;;0.47;;
38935;SDS011;66589;47.458;9.644;2023-05-19T03:33:10;3.95;;;0.90;;
38935;SDS011;66589;47.458;9.644;2023-05-19T03:35:35;2.42;;;0.60;;
38935;SDS011;66589;47.458;9.644;2023-05-19T03:38:01;1.98;;;0.55;;
38935;SDS011;66589;47.458;9.644;2023-05-19T03:40:27;2.25;;;0.73;;
38935;SDS011;66589;47.458;9.644;2023-05-19T03:42:53;3.55;;;0.75;;
38935;SDS011;66589;47.458;9.644;2023-05-19T03:45:18;3.05;;;0.73;;
38935;SDS011;66589;47.458;9.644;2023-05-19T03:47:45;3.75;;;0.75;;
38935;SDS011;66589;47.458;9.644;2023-05-19T03:50:11;2.92;;;0.50;;
38935;SDS011;66589;47.458;9.644;2023-05-19T03:52:38;2.60;;;0.73;;
38935;SDS011;66589;47.458;9.644;2023-05-19T03:55:04;2.00;;;0.65;;
38935;SDS011;66589;47.458;9.644;2023-05-19T03:57:31;4.10;;;0.50;;
38935;SDS011;66589;47.458;9.644;2023-05-19T03:59:57;3.42;;;0.90;;
38935;SDS011;66589;47.458;9.644;2023-05-19T04:02:23;2.30;;;0.77;;
38935;SDS011;66589;47.458;9.644;2023-05-19T04:04:49;1.85;;;0.55;;
38935;SDS011;66589;47.458;9.644;2023-05-19T04:07:16;2.28;;;0.60;;
38935;SDS011;66589;47.458;9.644;2023-05-19T04:09:41;3.60;;;0.70;;
38935;SDS011;66589;47.458;9.644;2023-05-19T04:12:07;3.83;;;0.70;;
38935;SDS011;66589;47.458;9.644;2023-05-19T04:14:33;2.70;;;0.73;;
38935;SDS011;66589;47.458;9.644;2023-05-19T04:16:58;3.75;;;0.90;;
38935;SDS011;66589;47.458;9.644;2023-05-19T04:19:24;2.90;;;0.73;;
38935;SDS011;66589;47.458;9.644;2023-05-19T04:21:50;2.55;;;0.73;;
38935;SDS011;66589;47.458;9.644;2023-05-19T04:24:15;2.33;;;0.50;;
38935;SDS011;66589;47.458;9.644;2023-05-19T04:26:41;3.45;;;0.98;;
38935;SDS011;66589;47.458;9.644;2023-05-19T04:29:10;3.03;;;1.13;;
38935;SDS011;66589;47.458;9.644;2023-05-19T04:31:37;1.90;;;0.63;;
38935;SDS011;66589;47.458;9.644;2023-05-19T04:34:06;4.82;;;0.77;;
38935;SDS011;66589;47.458;9.644;2023-05-19T04:36:32;3.92;;;1.42;;
38935;SDS011;66589;47.458;9.644;2023-05-19T04:38:58;2.97;;;0.77;;
38935;SDS011;66589;47.458;9.644;2023-05-19T04:41:33;5.28;;;0.80;;
38935;SDS011;66589;47.458;9.644;2023-05-19T04:43:59;2.17;;;0.70;;
38935;SDS011;66589;47.458;9.644;2023-05-19T04:46:25;4.05;;;0.77;;
38935;SDS011;66589;47.458;9.644;2023-05-19T04:48:51;2.58;;;1.00;;
38935;SDS011;66589;47.458;9.644;2023-05-19T04:51:19;3.30;;;1.30;;
38935;SDS011;66589;47.458;9.644;2023-05-19T04:53:45;2.25;;;0.90;;
38935;SDS011;66589;47.458;9.644;2023-05-19T04:56:10;3.10;;;1.10;;
38935;SDS011;66589;47.458;9.644;2023-05-19T04:58:39;2.63;;;0.93;;
38935;SDS011;66589;47.458;9.644;2023-05-19T05:01:05;5.47;;;1.00;;
38935;SDS011;66589;47.458;9.644;2023-05-19T05:03:33;2.83;;;0.88;;
38935;SDS011;66589;47.458;9.644;2023-05-19T05:05:59;6.28;;;1.23;;
38935;SDS011;66589;47.458;9.644;2023-05-19T05:08:25;5.50;;;1.17;;
38935;SDS011;66589;47.458;9.644;2023-05-19T05:10:51;3.25;;;1.13;;
38935;SDS011;66589;47.458;9.644;2023-05-19T05:13:21;6.53;;;1.60;;
38935;SDS011;66589;47.458;9.644;2023-05-19T05:15:47;4.45;;;1.02;;
38935;SDS011;66589;47.458;9.644;2023-05-19T05:18:14;3.35;;;0.90;;
38935;SDS011;66589;47.458;9.644;2023-05-19T05:20:43;3.63;;;0.63;;
38935;SDS011;66589;47.458;9.644;2023-05-19T05:23:11;2.10;;;0.57;;
38935;SDS011;66589;47.458;9.644;2023-05-19T05:25:40;4.47;;;0.70;;
38935;SDS011;66589;47.458;9.644;2023-05-19T05:28:09;4.22;;;0.70;;
38935;SDS011;66589;47.458;9.644;2023-05-19T05:30:35;2.58;;;0.73;;
38935;SDS011;66589;47.458;9.644;2023-05-19T05:33:01;4.30;;;0.68;;
38935;SDS011;66589;47.458;9.644;2023-05-19T05:35:27;3.63;;;0.90;;
38935;SDS011;66589;47.458;9.644;2023-05-19T05:37:53;2.78;;;0.68;;
38935;SDS011;66589;47.458;9.644;2023-05-19T05:40:20;2.28;;;0.80;;
38935;SDS011;66589;47.458;9.644;2023-05-19T05:42:46;3.53;;;0.77;;
38935;SDS011;66589;47.458;9.644;2023-05-19T05:45:11;3.85;;;0.70;;
38935;SDS011;66589;47.458;9.644;2023-05-19T05:47:37;2.83;;;0.57;;
38935;SDS011;66589;47.458;9.644;2023-05-19T05:50:05;2.03;;;0.55;;
38935;SDS011;66589;47.458;9.644;2023-05-19T05:52:32;2.40;;;0.73;;
38935;SDS011;66589;47.458;9.644;2023-05-19T05:54:59;3.25;;;0.70;;
38935;SDS011;66589;47.458;9.644;2023-05-19T05:57:25;1.95;;;0.52;;
38935;SDS011;66589;47.458;9.644;2023-05-19T05:59:54;5.05;;;0.75;;
38935;SDS011;66589;47.458;9.644;2023-05-19T06:02:20;2.08;;;0.60;;
38935;SDS011;66589;47.458;9.644;2023-05-19T06:04:46;2.92;;;0.70;;
38935;SDS011;66589;47.458;9.644;2023-05-19T06:07:11;4.80;;;0.60;;
38935;SDS011;66589;47.458;9.644;2023-05-19T06:09:37;4.50;;;0.73;;
38935;SDS011;66589;47.458;9.644;2023-05-19T06:12:03;3.13;;;0.90;;
38935;SDS011;66589;47.458;9.644;2023-05-19T06:14:30;2.63;;;0.60;;
38935;SDS011;66589;47.458;9.644;2023-05-19T06:16:56;2.78;;;0.63;;
38935;SDS011;66589;47.458;9.644;2023-05-19T06:19:21;2.97;;;0.73;;
38935;SDS011;66589;47.458;9.644;2023-05-19T06:21:49;2.45;;;0.70;;
38935;SDS011;66589;47.458;9.644;2023-05-19T06:24:15;4.95;;;0.75;;
38935;SDS011;66589;47.458;9.644;2023-05-19T06:26:40;3.22;;;0.80;;
38935;SDS011;66589;47.458;9.644;2023-05-19T06:29:06;3.63;;;0.93;;
38935;SDS011;66589;47.458;9.644;2023-05-19T06:31:32;3.63;;;0.88;;
38935;SDS011;66589;47.458;9.644;2023-05-19T06:33:58;2.50;;;0.73;;
38935;SDS011;66589;47.458;9.644;2023-05-19T06:36:24;2.92;;;0.70;;
38935;SDS011;66589;47.458;9.644;2023-05-19T06:38:49;3.65;;;0.90;;
38935;SDS011;66589;47.458;9.644;2023-05-19T06:41:15;4.07;;;0.98;;
38935;SDS011;66589;47.458;9.644;2023-05-19T06:43:41;2.55;;;0.40;;
38935;SDS011;66589;47.458;9.644;2023-05-19T06:46:07;2.00;;;1.08;;
38935;SDS011;66589;47.458;9.644;2023-05-19T06:48:32;2.08;;;0.73;;
38935;SDS011;66589;47.458;9.644;2023-05-19T06:50:58;3.70;;;0.85;;
38935;SDS011;66589;47.458;9.644;2023-05-19T06:53:24;2.83;;;1.50;;
38935;SDS011;66589;47.458;9.644;2023-05-19T06:55:49;2.30;;;1.02;;
38935;SDS011;66589;47.458;9.644;2023-05-19T06:58:16;7.53;;;1.27;;
38935;SDS011;66589;47.458;9.644;2023-05-19T07:00:41;2.72;;;1.40;;
38935;SDS011;66589;47.458;9.644;2023-05-19T07:03:07;3.17;;;0.90;;
38935;SDS011;66589;47.458;9.644;2023-05-19T07:05:33;3.13;;;0.90;;
38935;SDS011;66589;47.458;9.644;2023-05-19T07:07:59;4.82;;;2.03;;
38935;SDS011;66589;47.458;9.644;2023-05-19T07:10:25;2.65;;;1.15;;
38935;SDS011;66589;47.458;9.644;2023-05-19T07:12:51;4.30;;;1.27;;
38935;SDS011;66589;47.458;9.644;2023-05-19T07:15:17;5.50;;;0.88;;
38935;SDS011;66589;47.458;9.644;2023-05-19T07:17:42;4.22;;;2.03;;
38935;SDS011;66589;47.458;9.644;2023-05-19T07:20:08;2.95;;;1.02;;
38935;SDS011;66589;47.458;9.644;2023-05-19T07:22:35;2.90;;;0.93;;
38935;SDS011;66589;47.458;9.644;2023-05-19T07:25:01;1.83;;;0.98;;
38935;SDS011;66589;47.458;9.644;2023-05-19T07:27:26;6.05;;;1.20;;
38935;SDS011;66589;47.458;9.644;2023-05-19T07:29:53;4.30;;;1.23;;
38935;SDS011;66589;47.458;9.644;2023-05-19T07:32:19;3.17;;;1.10;;
38935;SDS011;66589;47.458;9.644;2023-05-19T07:34:44;4.70;;;1.65;;
38935;SDS011;66589;47.458;9.644;2023-05-19T07:37:10;2.38;;;1.20;;
38935;SDS011;66589;47.458;9.644;2023-05-19T07:39:36;3.25;;;1.60;;
38935;SDS011;66589;47.458;9.644;2023-05-19T07:42:02;5.47;;;3.45;;
38935;SDS011;66589;47.458;9.644;2023-05-19T07:44:27;4.00;;;1.35;;
38935;SDS011;66589;47.458;9.644;2023-05-19T07:46:55;3.15;;;1.65;;
38935;SDS011;66589;47.458;9.644;2023-05-19T07:49:21;4.15;;;1.55;;
38935;SDS011;66589;47.458;9.644;2023-05-19T07:51:47;2.30;;;1.55;;
38935;SDS011;66589;47.458;9.644;2023-05-19T07:54:12;4.35;;;1.75;;
38935;SDS011;66589;47.458;9.644;2023-05-19T07:56:38;2.63;;;1.58;;
38935;SDS011;66589;47.458;9.644;2023-05-19T07:59:04;3.75;;;2.05;;
38935;SDS011;66589;47.458;9.644;2023-05-19T08:01:31;5.60;;;2.28;;
38935;SDS011;66589;47.458;9.644;2023-05-19T08:03:57;3.45;;;1.55;;
38935;SDS011;66589;47.458;9.644;2023-05-19T08:06:23;2.78;;;1.52;;
38935;SDS011;66589;47.458;9.644;2023-05-19T08:08:49;6.22;;;2.08;;
38935;SDS011;66589;47.458;9.644;2023-05-19T08:11:16;3.08;;;1.80;;
38935;SDS011;66589;47.458;9.644;2023-05-19T08:13:41;4.50;;;2.05;;
38935;SDS011;66589;47.458;9.644;2023-05-19T08:16:07;3.83;;;2.17;;
38935;SDS011;66589;47.458;9.644;2023-05-19T08:18:33;4.22;;;2.70;;
38935;SDS011;66589;47.458;9.644;2023-05-19T08:20:58;5.70;;;2.53;;
38935;SDS011;66589;47.458;9.644;2023-05-19T08:23:25;5.13;;;1.75;;
38935;SDS011;66589;47.458;9.644;2023-05-19T08:25:51;2.35;;;1.40;;
38935;SDS011;66589;47.458;9.644;2023-05-19T08:28:16;3.92;;;1.58;;
38935;SDS011;66589;47.458;9.644;2023-05-19T08:30:42;4.63;;;1.73;;
38935;SDS011;66589;47.458;9.644;2023-05-19T08:33:07;4.45;;;1.45;;
38935;SDS011;66589;47.458;9.644;2023-05-19T08:35:33;2.80;;;1.30;;
38935;SDS011;66589;47.458;9.644;2023-05-19T08:37:59;3.08;;;1.45;;
38935;SDS011;66589;47.458;9.644;2023-05-19T08:40:25;3.97;;;1.55;;
38935;SDS011;66589;47.458;9.644;2023-05-19T08:42:55;2.72;;;1.30;;
38935;SDS011;66589;47.458;9.644;2023-05-19T08:45:21;2.58;;;1.55;;
38935;SDS011;66589;47.458;9.644;2023-05-19T08:47:46;2.65;;;1.40;;
38935;SDS011;66589;47.458;9.644;2023-05-19T08:50:20;2.90;;;1.10;;
38935;SDS011;66589;47.458;9.644;2023-05-19T08:52:54;5.03;;;1.70;;
38935;SDS011;66589;47.458;9.644;2023-05-19T08:58:10;2.92;;;1.15;;
38935;SDS011;66589;47.458;9.644;2023-05-19T09:00:37;3.60;;;1.70;;
38935;SDS011;66589;47.458;9.644;2023-05-19T09:03:03;3.28;;;1.65;;
38935;SDS011;66589;47.458;9.644;2023-05-19T09:05:29;5.00;;;1.65;;
38935;SDS011;66589;47.458;9.644;2023-05-19T09:07:55;3.78;;;1.88;;
38935;SDS011;66589;47.458;9.644;2023-05-19T09:10:21;6.65;;;2.25;;
38935;SDS011;66589;47.458;9.644;2023-05-19T09:12:47;5.25;;;1.80;;
38935;SDS011;66589;47.458;9.644;2023-05-19T09:15:16;4.78;;;1.90;;
38935;SDS011;66589;47.458;9.644;2023-05-19T09:17:45;3.20;;;1.85;;
38935;SDS011;66589;47.458;9.644;2023-05-19T09:20:14;5.03;;;1.85;;
38935;SDS011;66589;47.458;9.644;2023-05-19T09:22:44;3.55;;;2.00;;
38935;SDS011;66589;47.458;9.644;2023-05-19T09:25:45;4.38;;;2.40;;
38935;SDS011;66589;47.458;9.644;2023-05-19T09:33:29;4.03;;;2.38;;
38935;SDS011;66589;47.458;9.644;2023-05-19T09:35:56;4.70;;;2.42;;
38935;SDS011;66589;47.458;9.644;2023-05-19T09:38:25;3.97;;;2.28;;
38935;SDS011;66589;47.458;9.644;2023-05-19T09:40:52;4.32;;;2.53;;
38935;SDS011;66589;47.458;9.644;2023-05-19T09:43:20;4.32;;;2.42;;
38935;SDS011;66589;47.458;9.644;2023-05-19T09:45:46;4.05;;;3.13;;
38935;SDS011;66589;47.458;9.644;2023-05-19T09:48:13;5.05;;;2.40;;
38935;SDS011;66589;47.458;9.644;2023-05-19T09:50:41;4.25;;;2.60;;
38935;SDS011;66589;47.458;9.644;2023-05-19T09:53:10;5.40;;;2.70;;
38935;SDS011;66589;47.458;9.644;2023-05-19T09:55:41;3.67;;;2.47;;
38935;SDS011;66589;47.458;9.644;2023-05-19T09:58:07;4.25;;;2.50;;
38935;SDS011;66589;47.458;9.644;2023-05-19T10:00:33;3.58;;;2.05;;
38935;SDS011;66589;47.458;9.644;2023-05-19T10:02:59;4.78;;;2.92;;
38935;SDS011;66589;47.458;9.644;2023-05-19T10:05:27;4.63;;;2.00;;
38935;SDS011;66589;47.458;9.644;2023-05-19T10:07:54;5.32;;;2.45;;
38935;SDS011;66589;47.458;9.644;2023-05-19T10:10:20;4.60;;;2.05;;
38935;SDS011;66589;47.458;9.644;2023-05-19T10:12:47;4.60;;;1.80;;
38935;SDS011;66589;47.458;9.644;2023-05-19T10:15:14;5.32;;;2.25;;
38935;SDS011;66589;47.458;9.644;2023-05-19T10:17:42;4.28;;;1.70;;
38935;SDS011;66589;47.458;9.644;2023-05-19T10:20:09;4.97;;;1.95;;
38935;SDS011;66589;47.458;9.644;2023-05-19T10:22:36;4.97;;;2.08;;
38935;SDS011;66589;47.458;9.644;2023-05-19T10:25:03;6.80;;;2.85;;
38935;SDS011;66589;47.458;9.644;2023-05-19T10:27:30;5.32;;;1.83;;
38935;SDS011;66589;47.458;9.644;2023-05-19T10:29:59;3.70;;;1.75;;
38935;SDS011;66589;47.458;9.644;2023-05-19T10:32:31;5.00;;;1.88;;
38935;SDS011;66589;47.458;9.644;2023-05-19T10:40:32;3.92;;;1.95;;
38935;SDS011;66589;47.458;9.644;2023-05-19T10:43:12;6.53;;;1.88;;
38935;SDS011;66589;47.458;9.644;2023-05-19T10:45:55;6.03;;;2.28;;
38935;SDS011;66589;47.458;9.644;2023-05-19T10:48:22;4.90;;;1.73;;
38935;SDS011;66589;47.458;9.644;2023-05-19T10:50:48;4.97;;;2.03;;
38935;SDS011;66589;47.458;9.644;2023-05-19T10:53:17;6.93;;;1.80;;
38935;SDS011;66589;47.458;9.644;2023-05-19T10:55:52;5.45;;;1.90;;
38935;SDS011;66589;47.458;9.644;2023-05-19T10:58:37;5.50;;;1.90;;
38935;SDS011;66589;47.458;9.644;2023-05-19T11:01:13;6.38;;;1.80;;
38935;SDS011;66589;47.458;9.644;2023-05-19T11:08:52;4.22;;;1.92;;
38935;SDS011;66589;47.458;9.644;2023-05-19T11:11:22;3.47;;;1.77;;
38935;SDS011;66589;47.458;9.644;2023-05-19T11:13:52;8.07;;;1.77;;
38935;SDS011;66589;47.458;9.644;2023-05-19T11:16:27;4.13;;;2.03;;
38935;SDS011;66589;47.458;9.644;2023-05-19T11:18:55;5.25;;;1.55;;
38935;SDS011;66589;47.458;9.644;2023-05-19T11:21:22;3.83;;;1.77;;
38935;SDS011;66589;47.458;9.644;2023-05-19T11:23:49;4.30;;;2.05;;
38935;SDS011;66589;47.458;9.644;2023-05-19T11:26:15;5.20;;;1.88;;
38935;SDS011;66589;47.458;9.644;2023-05-19T11:29:05;4.93;;;1.95;;
38935;SDS011;66589;47.458;9.644;2023-05-19T11:31:31;4.20;;;1.85;;
38935;SDS011;66589;47.458;9.644;2023-05-19T11:34:00;4.43;;;1.73;;
38935;SDS011;66589;47.458;9.644;2023-05-19T11:36:26;4.70;;;1.55;;
38935;SDS011;66589;47.458;9.644;2023-05-19T11:38:53;3.67;;;1.65;;
38935;SDS011;66589;47.458;9.644;2023-05-19T11:41:19;4.85;;;1.60;;
38935;SDS011;66589;47.458;9.644;2023-05-19T11:43:46;6.25;;;1.90;;
38935;SDS011;66589;47.458;9.644;2023-05-19T11:46:12;5.72;;;1.88;;
38935;SDS011;66589;47.458;9.644;2023-05-19T11:48:37;5.18;;;2.03;;
38935;SDS011;66589;47.458;9.644;2023-05-19T11:51:04;7.57;;;1.80;;
38935;SDS011;66589;47.458;9.644;2023-05-19T11:53:30;7.28;;;2.05;;
38935;SDS011;66589;47.458;9.644;2023-05-19T11:58:28;4.53;;;1.67;;
38935;SDS011;66589;47.458;9.644;2023-05-19T12:00:54;4.80;;;1.98;;
38935;SDS011;66589;47.458;9.644;2023-05-19T12:03:20;4.50;;;1.90;;
38935;SDS011;66589;47.458;9.644;2023-05-19T12:05:51;3.85;;;2.05;;
38935;SDS011;66589;47.458;9.644;2023-05-19T12:08:17;3.60;;;1.90;;
38935;SDS011;66589;47.458;9.644;2023-05-19T12:10:44;3.58;;;1.70;;
38935;SDS011;66589;47.458;9.644;2023-05-19T12:13:14;5.50;;;2.08;;
38935;SDS011;66589;47.458;9.644;2023-05-19T12:15:40;5.88;;;2.13;;
38935;SDS011;66589;47.458;9.644;2023-05-19T12:18:06;3.97;;;1.90;;
38935;SDS011;66589;47.458;9.644;2023-05-19T12:20:32;6.22;;;2.75;;
38935;SDS011;66589;47.458;9.644;2023-05-19T12:22:59;6.43;;;2.15;;
38935;SDS011;66589;47.458;9.644;2023-05-19T12:25:26;6.20;;;2.13;;
38935;SDS011;66589;47.458;9.644;2023-05-19T12:27:56;5.85;;;1.98;;
38935;SDS011;66589;47.458;9.644;2023-05-19T12:30:27;4.68;;;1.88;;
38935;SDS011;66589;47.458;9.644;2023-05-19T12:32:53;4.60;;;2.05;;
38935;SDS011;66589;47.458;9.644;2023-05-19T12:35:24;5.10;;;2.00;;
38935;SDS011;66589;47.458;9.644;2023-05-19T12:38:06;6.43;;;2.42;;
38935;SDS011;66589;47.458;9.644;2023-05-19T12:40:32;6.22;;;2.20;;
38935;SDS011;66589;47.458;9.644;2023-05-19T12:42:58;6.47;;;2.25;;
38935;SDS011;66589;47.458;9.644;2023-05-19T12:45:24;9.02;;;2.40;;
38935;SDS011;66589;47.458;9.644;2023-05-19T12:47:52;5.95;;;2.33;;
38935;SDS011;66589;47.458;9.644;2023-05-19T12:50:18;5.75;;;2.17;;
38935;SDS011;66589;47.458;9.644;2023-05-19T12:52:47;7.53;;;2.17;;
38935;SDS011;66589;47.458;9.644;2023-05-19T12:55:16;6.80;;;2.20;;
38935;SDS011;66589;47.458;9.644;2023-05-19T12:57:47;7.05;;;2.55;;
38935;SDS011;66589;47.458;9.644;2023-05-19T13:00:17;4.97;;;1.65;;
38935;SDS011;66589;47.458;9.644;2023-05-19T13:05:28;4.43;;;1.65;;
38935;SDS011;66589;47.458;9.644;2023-05-19T13:08:09;8.45;;;1.70;;
38935;SDS011;66589;47.458;9.644;2023-05-19T13:10:36;5.75;;;1.67;;
38935;SDS011;66589;47.458;9.644;2023-05-19T13:13:03;8.95;;;2.15;;
38935;SDS011;66589;47.458;9.644;2023-05-19T13:15:30;5.03;;;1.80;;
38935;SDS011;66589;47.458;9.644;2023-05-19T13:17:59;4.18;;;1.42;;
38935;SDS011;66589;47.458;9.644;2023-05-19T13:20:27;5.63;;;1.42;;
38935;SDS011;66589;47.458;9.644;2023-05-19T13:22:52;6.82;;;2.00;;
38935;SDS011;66589;47.458;9.644;2023-05-19T13:25:18;5.35;;;1.27;;
38935;SDS011;66589;47.458;9.644;2023-05-19T13:27:45;5.60;;;1.58;;
38935;SDS011;66589;47.458;9.644;2023-05-19T13:30:12;4.50;;;1.52;;
38935;SDS011;66589;47.458;9.644;2023-05-19T13:32:38;4.13;;;1.55;;
38935;SDS011;66589;47.458;9.644;2023-05-19T13:35:04;5.85;;;1.98;;
38935;SDS011;66589;47.458;9.644;2023-05-19T13:37:30;7.65;;;1.50;;
38935;SDS011;66589;47.458;9.644;2023-05-19T13:39:56;5.10;;;1.42;;
38935;SDS011;66589;47.458;9.644;2023-05-19T13:42:22;6.72;;;1.40;;
38935;SDS011;66589;47.458;9.644;2023-05-19T13:44:48;6.22;;;1.75;;
38935;SDS011;66589;47.458;9.644;2023-05-19T13:47:14;4.75;;;1.35;;
38935;SDS011;66589;47.458;9.644;2023-05-19T13:49:40;4.25;;;1.02;;
38935;SDS011;66589;47.458;9.644;2023-05-19T13:52:05;4.05;;;1.60;;
38935;SDS011;66589;47.458;9.644;2023-05-19T13:54:31;6.90;;;1.55;;
38935;SDS011;66589;47.458;9.644;2023-05-19T13:56:57;6.43;;;1.40;;
38935;SDS011;66589;47.458;9.644;2023-05-19T13:59:24;3.95;;;1.20;;
38935;SDS011;66589;47.458;9.644;2023-05-19T14:01:50;5.95;;;1.55;;
38935;SDS011;66589;47.458;9.644;2023-05-19T14:04:16;5.50;;;1.00;;
38935;SDS011;66589;47.458;9.644;2023-05-19T14:06:42;6.15;;;1.13;;
38935;SDS011;66589;47.458;9.644;2023-05-19T14:09:08;4.80;;;1.40;;
38935;SDS011;66589;47.458;9.644;2023-05-19T14:11:34;6.03;;;1.70;;
38935;SDS011;66589;47.458;9.644;2023-05-19T14:14:00;4.15;;;1.40;;
38935;SDS011;66589;47.458;9.644;2023-05-19T14:16:27;6.72;;;1.73;;
38935;SDS011;66589;47.458;9.644;2023-05-19T14:18:54;5.03;;;1.35;;
38935;SDS011;66589;47.458;9.644;2023-05-19T14:21:20;5.97;;;1.40;;
38935;SDS011;66589;47.458;9.644;2023-05-19T14:23:46;3.80;;;1.30;;
38935;SDS011;66589;47.458;9.644;2023-05-19T14:26:12;6.10;;;1.90;;
38935;SDS011;66589;47.458;9.644;2023-05-19T14:28:37;6.43;;;1.65;;
38935;SDS011;66589;47.458;9.644;2023-05-19T14:31:03;3.78;;;1.48;;
38935;SDS011;66589;47.458;9.644;2023-05-19T14:33:30;4.45;;;1.40;;
38935;SDS011;66589;47.458;9.644;2023-05-19T14:35:55;7.60;;;1.85;;
38935;SDS011;66589;47.458;9.644;2023-05-19T14:38:24;9.43;;;1.98;;
38935;SDS011;66589;47.458;9.644;2023-05-19T14:40:50;5.88;;;1.63;;
38935;SDS011;66589;47.458;9.644;2023-05-19T14:43:15;6.18;;;1.70;;
38935;SDS011;66589;47.458;9.644;2023-05-19T14:45:41;4.13;;;1.60;;
38935;SDS011;66589;47.458;9.644;2023-05-19T14:48:07;4.28;;;1.42;;
38935;SDS011;66589;47.458;9.644;2023-05-19T14:50:35;5.50;;;1.95;;
38935;SDS011;66589;47.458;9.644;2023-05-19T14:53:01;8.02;;;2.25;;
38935;SDS011;66589;47.458;9.644;2023-05-19T14:55:27;10.48;;;2.00;;
38935;SDS011;66589;47.458;9.644;2023-05-19T14:57:53;5.70;;;1.75;;
38935;SDS011;66589;47.458;9.644;2023-05-19T15:00:18;6.95;;;2.38;;
38935;SDS011;66589;47.458;9.644;2023-05-19T15:02:44;4.93;;;1.73;;
38935;SDS011;66589;47.458;9.644;2023-05-19T15:05:10;7.38;;;2.53;;
38935;SDS011;66589;47.458;9.644;2023-05-19T15:07:36;7.00;;;2.20;;
38935;SDS011;66589;47.458;9.644;2023-05-19T15:10:02;8.02;;;2.85;;
38935;SDS011;66589;47.458;9.644;2023-05-19T15:12:28;8.35;;;2.90;;
38935;SDS011;66589;47.458;9.644;2023-05-19T15:14:54;7.70;;;2.80;;
38935;SDS011;66589;47.458;9.644;2023-05-19T15:17:20;5.20;;;2.55;;
38935;SDS011;66589;47.458;9.644;2023-05-19T15:19:45;6.90;;;2.42;;
38935;SDS011;66589;47.458;9.644;2023-05-19T15:22:11;7.22;;;2.00;;
38935;SDS011;66589;47.458;9.644;2023-05-19T15:24:37;7.07;;;2.58;;
38935;SDS011;66589;47.458;9.644;2023-05-19T15:27:03;10.52;;;3.13;;
38935;SDS011;66589;47.458;9.644;2023-05-19T15:29:29;7.35;;;2.72;;
38935;SDS011;66589;47.458;9.644;2023-05-19T15:31:55;9.63;;;2.75;;
38935;SDS011;66589;47.458;9.644;2023-05-19T15:34:21;11.52;;;3.67;;
38935;SDS011;66589;47.458;9.644;2023-05-19T15:36:46;8.23;;;3.03;;
38935;SDS011;66589;47.458;9.644;2023-05-19T15:39:12;10.55;;;5.20;;
38935;SDS011;66589;47.458;9.644;2023-05-19T15:41:38;7.10;;;3.78;;
38935;SDS011;66589;47.458;9.644;2023-05-19T15:44:04;7.60;;;2.83;;
38935;SDS011;66589;47.458;9.644;2023-05-19T15:46:30;6.28;;;2.78;;
38935;SDS011;66589;47.458;9.644;2023-05-19T15:48:56;7.35;;;3.47;;
38935;SDS011;66589;47.458;9.644;2023-05-19T15:51:22;6.95;;;3.15;;
38935;SDS011;66589;47.458;9.644;2023-05-19T15:53:48;7.68;;;3.28;;
38935;SDS011;66589;47.458;9.644;2023-05-19T15:56:14;6.40;;;3.40;;
38935;SDS011;66589;47.458;9.644;2023-05-19T15:58:40;8.40;;;3.63;;
38935;SDS011;66589;47.458;9.644;2023-05-19T16:01:06;9.00;;;3.15;;
38935;SDS011;66589;47.458;9.644;2023-05-19T16:03:32;10.35;;;3.92;;
38935;SDS011;66589;47.458;9.644;2023-05-19T16:05:58;8.63;;;3.85;;
38935;SDS011;66589;47.458;9.644;2023-05-19T16:08:24;9.50;;;3.72;;
38935;SDS011;66589;47.458;9.644;2023-05-19T16:10:50;7.80;;;3.63;;
38935;SDS011;66589;47.458;9.644;2023-05-19T16:13:17;9.52;;;3.53;;
38935;SDS011;66589;47.458;9.644;2023-05-19T16:15:43;10.10;;;3.50;;
38935;SDS011;66589;47.458;9.644;2023-05-19T16:18:08;8.02;;;3.72;;
38935;SDS011;66589;47.458;9.644;2023-05-19T16:20:35;11.90;;;3.92;;
38935;SDS011;66589;47.458;9.644;2023-05-19T16:23:01;7.90;;;3.65;;
38935;SDS011;66589;47.458;9.644;2023-05-19T16:25:27;8.63;;;4.53;;
38935;SDS011;66589;47.458;9.644;2023-05-19T16:27:52;8.35;;;3.80;;
38935;SDS011;66589;47.458;9.644;2023-05-19T16:30:18;7.70;;;3.80;;
38935;SDS011;66589;47.458;9.644;2023-05-19T16:32:44;8.50;;;3.67;;
38935;SDS011;66589;47.458;9.644;2023-05-19T16:35:10;10.02;;;4.55;;
38935;SDS011;66589;47.458;9.644;2023-05-19T16:37:35;9.27;;;3.33;;
38935;SDS011;66589;47.458;9.644;2023-05-19T16:40:01;10.68;;;3.72;;
38935;SDS011;66589;47.458;9.644;2023-05-19T16:42:27;7.97;;;3.45;;
38935;SDS011;66589;47.458;9.644;2023-05-19T16:44:53;9.95;;;4.22;;
38935;SDS011;66589;47.458;9.644;2023-05-19T16:47:18;7.47;;;4.00;;
38935;SDS011;66589;47.458;9.644;2023-05-19T16:49:44;9.57;;;3.55;;
38935;SDS011;66589;47.458;9.644;2023-05-19T16:52:10;11.15;;;3.90;;
38935;SDS011;66589;47.458;9.644;2023-05-19T16:54:35;11.20;;;3.85;;
38935;SDS011;66589;47.458;9.644;2023-05-19T16:57:01;11.73;;;4.80;;
38935;SDS011;66589;47.458;9.644;2023-05-19T16:59:27;11.30;;;3.72;;
38935;SDS011;66589;47.458;9.644;2023-05-19T17:01:53;11.77;;;3.92;;
38935;SDS011;66589;47.458;9.644;2023-05-19T17:04:20;7.68;;;3.63;;
38935;SDS011;66589;47.458;9.644;2023-05-19T17:06:45;9.07;;;3.72;;
38935;SDS011;66589;47.458;9.644;2023-05-19T17:09:11;7.65;;;3.58;;
38935;SDS011;66589;47.458;9.644;2023-05-19T17:11:37;8.05;;;3.92;;
38935;SDS011;66589;47.458;9.644;2023-05-19T17:14:02;8.57;;;3.47;;
38935;SDS011;66589;47.458;9.644;2023-05-19T17:16:32;8.90;;;3.80;;
38935;SDS011;66589;47.458;9.644;2023-05-19T17:19:02;6.18;;;3.58;;
38935;SDS011;66589;47.458;9.644;2023-05-19T17:21:28;6.78;;;3.35;;
38935;SDS011;66589;47.458;9.644;2023-05-19T17:23:54;6.53;;;3.60;;
38935;SDS011;66589;47.458;9.644;2023-05-19T17:26:20;9.63;;;3.70;;
38935;SDS011;66589;47.458;9.644;2023-05-19T17:28:46;8.57;;;3.42;;
38935;SDS011;66589;47.458;9.644;2023-05-19T17:31:12;7.85;;;3.53;;
38935;SDS011;66589;47.458;9.644;2023-05-19T17:33:38;6.85;;;3.65;;
38935;SDS011;66589;47.458;9.644;2023-05-19T17:36:04;7.53;;;3.22;;
38935;SDS011;66589;47.458;9.644;2023-05-19T17:38:31;10.65;;;3.95;;
38935;SDS011;66589;47.458;9.644;2023-05-19T17:41:00;9.20;;;4.07;;
38935;SDS011;66589;47.458;9.644;2023-05-19T17:43:28;8.88;;;3.63;;
38935;SDS011;66589;47.458;9.644;2023-05-19T17:45:54;8.45;;;3.65;;
38935;SDS011;66589;47.458;9.644;2023-05-19T17:48:19;10.70;;;4.22;;
38935;SDS011;66589;47.458;9.644;2023-05-19T17:50:45;7.85;;;4.07;;
38935;SDS011;66589;47.458;9.644;2023-05-19T17:53:12;7.15;;;3.13;;
38935;SDS011;66589;47.458;9.644;2023-05-19T17:55:39;8.77;;;3.15;;
38935;SDS011;66589;47.458;9.644;2023-05-19T17:58:05;7.95;;;3.65;;
38935;SDS011;66589;47.458;9.644;2023-05-19T18:00:31;10.07;;;3.90;;
38935;SDS011;66589;47.458;9.644;2023-05-19T18:02:57;8.18;;;3.92;;
38935;SDS011;66589;47.458;9.644;2023-05-19T18:05:24;8.95;;;4.20;;
38935;SDS011;66589;47.458;9.644;2023-05-19T18:07:50;6.07;;;3.35;;
38935;SDS011;66589;47.458;9.644;2023-05-19T18:10:17;7.35;;;3.33;;
38935;SDS011;66589;47.458;9.644;2023-05-19T18:12:43;8.70;;;3.70;;
38935;SDS011;66589;47.458;9.644;2023-05-19T18:15:09;6.93;;;3.70;;
38935;SDS011;66589;47.458;9.644;2023-05-19T18:17:35;8.13;;;3.95;;
38935;SDS011;66589;47.458;9.644;2023-05-19T18:20:01;6.78;;;3.67;;
38935;SDS011;66589;47.458;9.644;2023-05-19T18:22:27;7.25;;;3.10;;
38935;SDS011;66589;47.458;9.644;2023-05-19T18:24:53;6.13;;;3.08;;
38935;SDS011;66589;47.458;9.644;2023-05-19T18:27:19;6.15;;;3.47;;